createdAt,value
2019-05-13T00:01:25.115Z,53.62
2019-05-13T00:03:58.696Z,53.50
2019-05-13T00:06:50.296Z,53.95
2019-05-13T00:08:59.923Z,53.69
2019-05-13T00:11:30.326Z,53.91
2019-05-13T00:14:08.431Z,54.20
2019-05-13T00:16:46.677Z,54.34
2019-05-13T00:19:18.790Z,54.36
2019-05-13T00:21:48.129Z,54.37
2019-05-13T00:24:17.370Z,54.55
2019-05-13T00:26:46.455Z,54.46
2019-05-13T00:29:17.457Z,54.55
2019-05-13T00:31:49.091Z,54.43
2019-05-13T00:34:19.366Z,54.40
2019-05-13T00:36:48.590Z,54.28
2019-05-13T00:39:41.278Z,54.57
2019-05-13T00:42:14.214Z,54.11
2019-05-13T00:44:44.467Z,54.59
2019-05-13T00:47:14.468Z,54.87
2019-05-13T00:49:43.871Z,55.24
2019-05-13T00:52:14.319Z,56.01
2019-05-13T00:54:46.445Z,56.09
2019-05-13T00:57:15.701Z,56.16
2019-05-13T00:59:44.796Z,56.41
2019-05-13T01:02:14.062Z,56.94
2019-05-13T01:04:44.193Z,56.84
2019-05-13T01:07:25.266Z,57.15
2019-05-13T01:09:45.537Z,57.38
2019-05-13T01:12:14.586Z,57.64
2019-05-13T01:14:46.010Z,57.35
2019-05-13T01:17:15.496Z,57.08
2019-05-13T01:19:44.561Z,57.06
2019-05-13T01:22:13.901Z,56.83
2019-05-13T01:24:45.474Z,56.67
2019-05-13T01:27:14.590Z,56.89
2019-05-13T01:29:45.025Z,57.09
2019-05-13T01:32:15.018Z,57.30
2019-05-13T01:34:47.139Z,57.32
2019-05-13T01:37:23.366Z,57.56
2019-05-13T01:39:57.740Z,57.44
2019-05-13T01:42:26.845Z,57.43
2019-05-13T01:44:58.963Z,57.31
2019-05-13T01:47:27.999Z,57.33
2019-05-13T01:49:57.253Z,57.36
2019-05-13T01:52:26.475Z,57.70
2019-05-13T01:54:55.547Z,58.12
2019-05-13T01:57:24.607Z,58.15
2019-05-13T01:59:55.546Z,57.99
2019-05-13T02:02:25.671Z,58.11
2019-05-13T02:04:54.742Z,58.19
2019-05-13T02:07:24.864Z,58.36
2019-05-13T02:09:55.831Z,58.27
2019-05-13T02:12:27.114Z,57.92
2019-05-13T02:14:56.174Z,57.92
2019-05-13T02:17:26.300Z,57.78
2019-05-13T02:19:55.363Z,58.04
2019-05-13T02:22:29.433Z,58.52
2019-05-13T02:24:59.949Z,58.41
2019-05-13T02:27:29.038Z,58.71
2019-05-13T02:29:58.084Z,58.74
2019-05-13T02:32:27.143Z,58.87
2019-05-13T02:34:56.217Z,59.15
2019-05-13T02:37:29.195Z,59.05
2019-05-13T02:39:56.106Z,58.67
2019-05-13T02:42:25.155Z,58.76
2019-05-13T02:45:03.392Z,59.05
2019-05-13T02:47:33.654Z,58.90
2019-05-13T02:50:05.088Z,59.18
2019-05-13T02:52:33.702Z,59.30
2019-05-13T02:55:04.353Z,59.48
2019-05-13T02:57:33.516Z,59.61
2019-05-13T03:00:04.148Z,59.52
2019-05-13T03:02:33.885Z,59.15
2019-05-13T03:05:03.423Z,59.16
2019-05-13T03:07:34.289Z,58.72
2019-05-13T03:10:08.052Z,59.67
2019-05-13T03:12:37.183Z,59.64
2019-05-13T03:15:13.077Z,59.92
2019-05-13T03:18:06.255Z,60.11
2019-05-13T03:20:39.394Z,60.09
2019-05-13T03:23:08.489Z,60.19
2019-05-13T03:25:37.555Z,60.43
2019-05-13T03:28:06.869Z,60.62
2019-05-13T03:30:37.348Z,60.64
2019-05-13T03:33:10.872Z,60.38
2019-05-13T03:35:45.697Z,60.28
2019-05-13T03:38:13.026Z,60.01
2019-05-13T03:40:42.998Z,59.86
2019-05-13T03:43:13.000Z,59.89
2019-05-13T03:45:43.517Z,59.95
2019-05-13T03:48:17.350Z,60.04
2019-05-13T03:50:48.367Z,60.25
2019-05-13T03:53:17.477Z,60.34
2019-05-13T03:55:46.862Z,60.70
2019-05-13T03:58:16.058Z,60.80
2019-05-13T04:00:54.137Z,60.68
2019-05-13T04:03:26.144Z,60.59
2019-05-13T04:06:03.721Z,60.35
2019-05-13T04:08:33.110Z,60.34
2019-05-13T04:11:04.477Z,59.96
2019-05-13T04:13:38.096Z,60.22
2019-05-13T04:16:07.289Z,59.65
2019-05-13T04:18:36.354Z,57.45
2019-05-13T04:21:12.620Z,57.12
2019-05-13T04:23:42.340Z,53.96
2019-05-13T04:26:09.800Z,49.78
2019-05-13T04:28:44.132Z,48.23
2019-05-13T04:31:14.764Z,49.14
2019-05-13T04:33:49.236Z,50.01
2019-05-13T04:36:23.891Z,52.44
2019-05-13T04:39:03.346Z,53.63
2019-05-13T04:41:33.541Z,55.06
2019-05-13T04:44:04.056Z,56.29
2019-05-13T04:46:33.764Z,56.47
2019-05-13T04:49:03.889Z,56.37
2019-05-13T04:51:36.068Z,56.69
2019-05-13T04:54:05.211Z,57.27
2019-05-13T04:56:35.845Z,57.33
2019-05-13T04:59:05.854Z,57.70
2019-05-13T05:02:22.355Z,56.93
2019-05-13T05:05:22.622Z,56.52
2019-05-13T05:08:22.254Z,56.52
2019-05-13T05:11:34.603Z,56.79
2019-05-13T05:14:22.260Z,56.42
2019-05-13T05:17:17.397Z,56.58
2019-05-13T05:20:07.349Z,56.46
2019-05-13T05:22:58.491Z,56.79
2019-05-13T05:26:13.580Z,56.71
2019-05-13T05:29:23.892Z,56.30
2019-05-13T05:32:22.273Z,56.87
2019-05-13T05:35:36.976Z,56.95
2019-05-13T05:38:18.670Z,56.20
2019-05-13T05:40:52.160Z,55.59
2019-05-13T05:43:23.404Z,55.61
2019-05-13T05:45:54.157Z,54.70
2019-05-13T05:48:25.572Z,54.22
2019-05-13T05:50:56.333Z,54.42
2019-05-13T05:53:27.186Z,54.50
2019-05-13T05:55:59.461Z,54.60
2019-05-13T05:58:31.562Z,53.82
2019-05-13T06:01:06.656Z,54.90
2019-05-13T06:03:37.977Z,54.94
2019-05-13T06:06:11.739Z,54.16
2019-05-13T06:08:42.718Z,54.88
2019-05-13T06:11:12.067Z,55.34
2019-05-13T06:13:43.842Z,55.03
2019-05-13T06:16:13.150Z,55.63
2019-05-13T06:18:43.313Z,54.58
2019-05-13T06:21:13.729Z,55.44
2019-05-13T06:23:57.068Z,55.18
2019-05-13T06:26:26.126Z,54.75
2019-05-13T06:28:55.212Z,54.31
2019-05-13T06:31:25.721Z,54.48
2019-05-13T06:33:56.298Z,54.22
2019-05-13T06:36:25.357Z,54.78
2019-05-13T06:38:54.430Z,55.35
2019-05-13T06:41:26.413Z,55.20
2019-05-13T06:44:02.638Z,55.37
2019-05-13T06:46:32.404Z,54.96
2019-05-13T06:49:06.690Z,55.39
2019-05-13T06:51:35.775Z,55.92
2019-05-13T06:54:11.293Z,55.84
2019-05-13T06:56:35.955Z,56.04
2019-05-13T06:59:05.041Z,56.33
2019-05-13T07:01:38.417Z,55.54
2019-05-13T07:04:07.625Z,56.11
2019-05-13T07:06:41.819Z,56.82
2019-05-13T07:09:16.234Z,56.69
2019-05-13T07:11:45.307Z,56.79
2019-05-13T07:14:14.501Z,56.84
2019-05-13T07:16:43.742Z,57.36
2019-05-13T07:19:15.943Z,57.13
2019-05-13T07:21:45.341Z,55.98
2019-05-13T07:24:18.029Z,55.66
2019-05-13T07:26:52.304Z,54.34
2019-05-13T07:29:28.171Z,55.57
2019-05-13T07:32:08.359Z,55.37
2019-05-13T07:34:43.921Z,53.78
2019-05-13T07:37:11.523Z,53.26
2019-05-13T07:39:44.706Z,52.60
2019-05-13T07:42:16.314Z,53.17
2019-05-13T07:44:46.582Z,52.94
2019-05-13T07:47:17.412Z,52.39
2019-05-13T07:49:46.398Z,53.70
2019-05-13T07:52:16.562Z,52.94
2019-05-13T07:54:45.638Z,53.43
2019-05-13T07:57:16.336Z,53.69
2019-05-13T07:59:48.553Z,54.07
2019-05-13T08:02:17.599Z,53.24
2019-05-13T08:04:49.359Z,55.15
2019-05-13T08:07:23.824Z,54.15
2019-05-13T08:09:56.085Z,53.52
2019-05-13T08:12:23.936Z,53.76
2019-05-13T08:14:54.743Z,53.81
2019-05-13T08:17:28.701Z,52.05
2019-05-13T08:19:57.924Z,53.63
2019-05-13T08:22:27.259Z,53.32
2019-05-13T08:24:57.449Z,51.71
2019-05-13T08:27:30.760Z,51.80
2019-05-13T08:30:01.669Z,52.29
2019-05-13T08:32:31.530Z,52.22
2019-05-13T08:35:08.374Z,51.88
2019-05-13T08:37:34.695Z,50.23
2019-05-13T08:40:09.024Z,49.43
2019-05-13T08:42:41.513Z,51.02
2019-05-13T08:45:12.074Z,50.63
2019-05-13T08:47:55.704Z,50.20
2019-05-13T08:50:24.802Z,50.10
2019-05-13T08:52:53.889Z,49.88
2019-05-13T08:55:23.154Z,50.80
2019-05-13T08:57:55.170Z,51.82
2019-05-13T09:00:47.395Z,51.89
2019-05-13T09:03:16.503Z,51.39
2019-05-13T09:05:45.548Z,52.17
2019-05-13T09:08:15.997Z,52.28
2019-05-13T09:10:47.854Z,51.10
2019-05-13T09:13:17.938Z,51.49
2019-05-13T09:15:51.666Z,49.51
2019-05-13T09:18:22.960Z,48.85
2019-05-13T09:20:53.926Z,51.00
2019-05-13T09:23:27.556Z,49.95
2019-05-13T09:25:56.665Z,49.84
2019-05-13T09:28:25.784Z,49.76
2019-05-13T09:30:58.043Z,49.31
2019-05-13T09:33:28.512Z,49.17
2019-05-13T09:36:13.219Z,47.50
2019-05-13T09:38:42.159Z,49.73
2019-05-13T09:41:12.329Z,47.69
2019-05-13T09:43:44.265Z,47.89
2019-05-13T09:46:15.223Z,47.25
2019-05-13T09:48:48.037Z,46.78
2019-05-13T09:51:17.096Z,46.39
2019-05-13T09:53:49.193Z,47.16
2019-05-13T09:56:18.762Z,47.03
2019-05-13T09:58:51.369Z,46.60
2019-05-13T10:01:24.460Z,46.74
2019-05-13T10:03:58.102Z,45.95
2019-05-13T10:06:25.766Z,46.11
2019-05-13T10:08:57.759Z,46.53
2019-05-13T10:11:27.110Z,46.60
2019-05-13T10:13:58.016Z,47.60
2019-05-13T10:16:31.162Z,46.75
2019-05-13T10:18:58.149Z,47.17
2019-05-13T10:21:34.124Z,47.11
2019-05-13T10:24:03.202Z,46.89
2019-05-13T10:26:32.505Z,45.03
2019-05-13T10:29:01.653Z,45.12
2019-05-13T10:31:34.311Z,45.14
2019-05-13T10:34:03.403Z,42.19
2019-05-13T10:36:32.635Z,40.01
2019-05-13T10:39:01.814Z,39.75
2019-05-13T10:41:42.062Z,40.41
2019-05-13T10:44:12.103Z,40.05
2019-05-13T10:46:43.840Z,39.32
2019-05-13T10:49:12.950Z,40.39
2019-05-13T10:51:43.313Z,39.30
2019-05-13T10:54:16.991Z,41.08
2019-05-13T10:56:46.083Z,39.47
2019-05-13T10:59:15.253Z,38.90
2019-05-13T11:01:44.275Z,38.70
2019-05-13T11:04:14.448Z,40.04
2019-05-13T11:06:44.928Z,39.75
2019-05-13T11:09:18.525Z,38.76
2019-05-13T11:11:52.793Z,40.00
2019-05-13T11:14:22.178Z,39.69
2019-05-13T11:16:52.579Z,39.81
2019-05-13T11:19:23.024Z,40.94
2019-05-13T11:21:53.977Z,39.82
2019-05-13T11:24:23.237Z,38.63
2019-05-13T11:26:54.833Z,37.60
2019-05-13T11:29:25.620Z,38.08
2019-05-13T11:31:54.988Z,38.12
2019-05-13T11:34:32.623Z,38.67
2019-05-13T11:37:08.102Z,38.24
2019-05-13T11:39:38.514Z,36.32
2019-05-13T11:42:13.214Z,36.76
2019-05-13T11:44:44.988Z,36.35
2019-05-13T11:47:15.098Z,36.36
2019-05-13T11:49:51.338Z,38.52
2019-05-13T11:52:22.708Z,37.19
2019-05-13T11:55:01.787Z,37.69
2019-05-13T11:57:31.038Z,38.87
2019-05-13T12:00:06.483Z,35.54
2019-05-13T12:02:50.992Z,36.39
2019-05-13T12:05:22.764Z,38.31
2019-05-13T12:07:55.181Z,38.81
2019-05-13T12:10:28.895Z,38.18
2019-05-13T12:12:58.441Z,37.55
2019-05-13T12:15:44.542Z,36.68
2019-05-13T12:18:02.840Z,37.71
2019-05-13T12:20:38.586Z,37.26
2019-05-13T12:23:08.786Z,38.54
2019-05-13T12:25:42.897Z,35.60
2019-05-13T12:28:11.545Z,36.53
2019-05-13T12:30:43.844Z,36.97
2019-05-13T12:33:13.726Z,34.71
2019-05-13T12:35:42.815Z,35.28
2019-05-13T12:38:13.223Z,34.46
2019-05-13T12:40:43.961Z,36.11
2019-05-13T12:43:14.093Z,37.65
2019-05-13T12:45:43.841Z,36.96
2019-05-13T12:48:14.125Z,35.83
2019-05-13T12:50:43.748Z,35.92
2019-05-13T12:53:16.760Z,34.98
2019-05-13T12:55:55.751Z,35.46
2019-05-13T12:58:23.752Z,35.47
2019-05-13T13:00:57.221Z,35.09
2019-05-13T13:03:26.372Z,35.45
2019-05-13T13:06:20.973Z,36.32
2019-05-13T13:08:43.059Z,35.94
2019-05-13T13:11:03.071Z,36.90
2019-05-13T13:13:57.501Z,36.79
2019-05-13T13:16:12.454Z,35.01
2019-05-13T13:18:52.099Z,34.51
2019-05-13T13:21:33.648Z,33.76
2019-05-13T13:24:04.565Z,34.94
2019-05-13T13:26:33.912Z,36.26
2019-05-13T13:29:04.865Z,36.79
2019-05-13T13:31:36.770Z,37.08
2019-05-13T13:34:18.309Z,36.72
2019-05-13T13:36:47.686Z,35.49
2019-05-13T13:39:25.517Z,35.40
2019-05-13T13:42:05.454Z,35.59
2019-05-13T13:44:36.637Z,35.90
2019-05-13T13:47:07.790Z,35.23
2019-05-13T13:49:43.623Z,34.00
2019-05-13T13:52:16.119Z,34.72
2019-05-13T13:54:44.171Z,35.30
2019-05-13T13:57:25.671Z,34.93
2019-05-13T14:00:19.739Z,36.66
2019-05-13T14:02:37.301Z,35.99
2019-05-13T14:05:08.522Z,34.57
2019-05-13T14:07:39.005Z,34.04
2019-05-13T14:10:15.673Z,34.52
2019-05-13T14:12:45.111Z,34.79
2019-05-13T14:15:16.122Z,34.11
2019-05-13T14:17:46.597Z,35.17
2019-05-13T14:20:16.695Z,33.82
2019-05-13T14:22:46.637Z,33.61
2019-05-13T14:25:17.274Z,33.01
2019-05-13T14:27:54.414Z,32.17
2019-05-13T14:30:28.008Z,32.22
2019-05-13T14:32:57.058Z,32.61
2019-05-13T14:35:31.362Z,33.13
2019-05-13T14:38:02.508Z,32.88
2019-05-13T14:40:32.892Z,33.28
2019-05-13T14:43:03.734Z,32.68
2019-05-13T14:45:37.968Z,32.53
2019-05-13T14:48:07.030Z,33.10
2019-05-13T14:50:36.417Z,32.12
2019-05-13T14:53:07.267Z,31.76
2019-05-13T14:55:37.648Z,31.81
2019-05-13T14:58:07.762Z,30.78
2019-05-13T15:00:42.827Z,31.93
2019-05-13T15:03:13.022Z,30.32
2019-05-13T15:05:44.335Z,30.28
2019-05-13T15:08:13.810Z,30.59
2019-05-13T15:10:47.585Z,30.89
2019-05-13T15:13:16.720Z,31.16
2019-05-13T15:15:47.664Z,31.12
2019-05-13T15:18:18.723Z,31.88
2019-05-13T15:20:47.923Z,31.39
2019-05-13T15:23:18.635Z,31.59
2019-05-13T15:25:51.499Z,31.60
2019-05-13T15:28:23.070Z,31.07
2019-05-13T15:30:53.596Z,30.58
2019-05-13T15:33:25.876Z,30.20
2019-05-13T15:35:55.217Z,31.89
2019-05-13T15:38:24.298Z,31.58
2019-05-13T15:40:53.366Z,31.74
2019-05-13T15:43:22.527Z,31.49
2019-05-13T15:45:51.627Z,32.05
2019-05-13T15:48:22.643Z,32.24
2019-05-13T15:50:54.553Z,31.96
2019-05-13T15:53:23.772Z,31.47
2019-05-13T15:55:52.885Z,31.67
2019-05-13T15:58:38.074Z,31.60
2019-05-13T16:00:54.639Z,32.33
2019-05-13T16:03:28.934Z,32.10
2019-05-13T16:05:58.018Z,31.91
2019-05-13T16:08:27.348Z,31.80
2019-05-13T16:11:02.193Z,32.17
2019-05-13T16:13:31.802Z,32.78
2019-05-13T16:16:06.080Z,31.76
2019-05-13T16:18:35.207Z,32.09
2019-05-13T16:21:04.311Z,32.54
2019-05-13T16:23:33.382Z,32.69
2019-05-13T16:26:02.458Z,33.08
2019-05-13T16:28:32.520Z,32.37
2019-05-13T16:31:02.992Z,32.02
2019-05-13T16:33:32.176Z,32.60
2019-05-13T16:36:03.757Z,32.23
2019-05-13T16:38:33.178Z,32.65
2019-05-13T16:41:05.946Z,33.18
2019-05-13T16:43:36.780Z,33.28
2019-05-13T16:46:11.923Z,33.28
2019-05-13T16:48:43.126Z,33.48
2019-05-13T16:51:13.491Z,33.27
2019-05-13T16:53:46.869Z,33.11
2019-05-13T16:56:26.738Z,33.17
2019-05-13T16:58:52.028Z,33.46
2019-05-13T17:01:21.995Z,33.56
2019-05-13T17:04:02.391Z,33.95
2019-05-13T17:06:32.110Z,33.94
2019-05-13T17:09:11.503Z,33.85
2019-05-13T17:11:41.699Z,33.13
2019-05-13T17:14:10.695Z,33.62
2019-05-13T17:16:41.425Z,33.88
2019-05-13T17:19:18.711Z,34.36
2019-05-13T17:21:47.791Z,34.03
2019-05-13T17:24:16.928Z,34.62
2019-05-13T17:26:46.083Z,34.96
2019-05-13T17:29:15.383Z,34.76
2019-05-13T17:31:51.358Z,34.86
2019-05-13T17:34:21.180Z,34.57
2019-05-13T17:36:52.051Z,34.60
2019-05-13T17:39:21.404Z,34.55
2019-05-13T17:41:52.308Z,34.59
2019-05-13T17:44:21.937Z,34.38
2019-05-13T17:46:52.247Z,34.21
2019-05-13T17:49:22.226Z,33.95
2019-05-13T17:51:51.798Z,34.20
2019-05-13T17:54:22.544Z,34.21
2019-05-13T17:56:51.803Z,34.51
2019-05-13T17:59:21.890Z,34.41
2019-05-13T18:01:52.225Z,34.39
2019-05-13T18:04:22.699Z,34.17
2019-05-13T18:06:58.629Z,34.07
2019-05-13T18:09:31.882Z,33.90
2019-05-13T18:12:02.703Z,33.67
2019-05-13T18:14:37.469Z,33.68
2019-05-13T18:17:06.680Z,33.93
2019-05-13T18:19:37.789Z,33.87
2019-05-13T18:22:06.899Z,33.29
2019-05-13T18:24:37.810Z,33.79
2019-05-13T18:27:06.892Z,33.47
2019-05-13T18:29:35.960Z,33.16
2019-05-13T18:32:06.135Z,33.15
2019-05-13T18:34:37.111Z,32.83
2019-05-13T18:37:12.014Z,32.79
2019-05-13T18:39:46.812Z,32.91
2019-05-13T18:42:18.134Z,32.90
2019-05-13T18:44:48.607Z,33.00
2019-05-13T18:47:22.132Z,33.08
2019-05-13T18:49:52.559Z,32.85
2019-05-13T18:52:25.599Z,32.26
2019-05-13T18:54:57.524Z,32.68
2019-05-13T18:57:34.184Z,32.73
2019-05-13T19:00:03.400Z,32.69
2019-05-13T19:02:32.509Z,32.71
2019-05-13T19:05:01.994Z,32.72
2019-05-13T19:07:32.497Z,32.72
2019-05-13T19:10:03.402Z,32.90
2019-05-13T19:12:32.651Z,33.01
2019-05-13T19:15:02.550Z,33.25
2019-05-13T19:17:32.373Z,33.22
2019-05-13T19:20:04.596Z,33.53
2019-05-13T19:22:38.142Z,33.55
2019-05-13T19:25:11.879Z,33.59
2019-05-13T19:27:42.487Z,34.06
2019-05-13T19:30:14.207Z,34.42
2019-05-13T19:32:44.334Z,34.40
2019-05-13T19:35:13.470Z,34.66
2019-05-13T19:37:44.627Z,34.51
2019-05-13T19:40:13.796Z,34.80
2019-05-13T19:42:43.864Z,35.24
2019-05-13T19:45:15.900Z,35.35
2019-05-13T19:47:46.904Z,35.70
2019-05-13T19:50:17.519Z,35.71
2019-05-13T19:52:46.667Z,36.04
2019-05-13T19:55:15.778Z,36.10
2019-05-13T19:57:46.266Z,36.35
2019-05-13T20:00:15.822Z,36.50
2019-05-13T20:02:44.911Z,36.98
2019-05-13T20:05:14.003Z,37.02
2019-05-13T20:07:43.057Z,37.33
2019-05-13T20:10:13.080Z,37.35
2019-05-13T20:12:42.288Z,37.32
2019-05-13T20:15:14.267Z,37.26
2019-05-13T20:17:43.337Z,37.55
2019-05-13T20:20:12.820Z,37.54
2019-05-13T20:22:51.640Z,37.77
2019-05-13T20:25:25.448Z,38.04
2019-05-13T20:27:54.547Z,38.32
2019-05-13T20:30:23.696Z,38.40
2019-05-13T20:32:52.779Z,38.37
2019-05-13T20:35:23.123Z,38.74
2019-05-13T20:37:53.289Z,38.56
2019-05-13T20:40:22.335Z,38.27
2019-05-13T20:42:52.859Z,38.47
2019-05-13T20:45:22.535Z,38.35
2019-05-13T20:47:52.108Z,38.55
2019-05-13T20:50:21.684Z,38.77
2019-05-13T20:52:51.590Z,38.69
2019-05-13T20:55:24.131Z,38.37
2019-05-13T20:57:53.325Z,38.63
2019-05-13T21:00:22.373Z,38.78
2019-05-13T21:02:51.795Z,38.71
2019-05-13T21:05:22.782Z,38.83
2019-05-13T21:07:52.011Z,38.63
2019-05-13T21:10:21.355Z,38.57
2019-05-13T21:12:51.517Z,38.51
2019-05-13T21:15:21.064Z,38.35
2019-05-13T21:17:51.572Z,38.60
2019-05-13T21:20:36.091Z,38.37
2019-05-13T21:23:11.418Z,38.38
2019-05-13T21:25:41.870Z,38.12
2019-05-13T21:28:11.492Z,37.85
2019-05-13T21:30:42.571Z,38.03
2019-05-13T21:33:17.692Z,38.14
2019-05-13T21:35:48.524Z,38.29
2019-05-13T21:38:18.675Z,38.31
2019-05-13T21:40:52.354Z,38.09
2019-05-13T21:43:21.744Z,38.19
2019-05-13T21:45:52.268Z,37.92
2019-05-13T21:48:21.862Z,38.33
2019-05-13T21:50:52.085Z,38.37
2019-05-13T21:53:24.277Z,38.72
2019-05-13T21:55:56.698Z,38.96
2019-05-13T21:58:25.761Z,39.08
2019-05-13T22:00:56.587Z,38.94
2019-05-13T22:03:26.494Z,39.36
2019-05-13T22:05:58.502Z,39.45
2019-05-13T22:08:27.573Z,39.53
2019-05-13T22:10:57.071Z,39.33
2019-05-13T22:13:26.147Z,39.16
2019-05-13T22:18:57.739Z,39.35
2019-05-13T22:21:26.806Z,39.49
2019-05-13T22:23:58.795Z,39.37
2019-05-13T22:26:31.078Z,39.42
2019-05-13T22:29:02.828Z,39.71
2019-05-13T22:31:37.844Z,39.87
2019-05-13T22:34:07.994Z,39.97
2019-05-13T22:36:37.166Z,39.97
2019-05-13T22:39:07.289Z,40.01
2019-05-13T22:41:37.872Z,39.90
2019-05-13T22:44:08.275Z,39.81
2019-05-13T22:46:37.320Z,39.89
2019-05-13T22:49:06.436Z,39.72
2019-05-13T22:51:37.232Z,39.74
2019-05-13T22:54:06.267Z,39.49
2019-05-13T22:56:35.316Z,39.43
2019-05-13T22:59:05.384Z,39.55
2019-05-13T23:01:34.486Z,39.45
2019-05-13T23:04:05.915Z,39.39
2019-05-13T23:06:41.565Z,39.43
2019-05-13T23:09:12.525Z,39.71
2019-05-13T23:11:41.871Z,39.67
2019-05-13T23:14:13.435Z,39.73
2019-05-13T23:16:44.546Z,40.00
2019-05-13T23:19:17.424Z,39.84
2019-05-13T23:21:51.005Z,39.81
2019-05-13T23:24:24.582Z,39.98
2019-05-13T23:26:55.438Z,39.83
2019-05-13T23:29:28.127Z,39.97
2019-05-13T23:31:57.221Z,40.53
2019-05-13T23:34:28.151Z,40.28
2019-05-13T23:37:03.276Z,39.49
2019-05-13T23:39:32.402Z,39.55
2019-05-13T23:42:01.567Z,40.00
2019-05-13T23:44:32.414Z,39.79
2019-05-13T23:47:01.482Z,39.85
2019-05-13T23:49:33.592Z,40.33
2019-05-13T23:52:02.706Z,40.03
2019-05-13T23:54:31.764Z,40.01
2019-05-13T23:57:01.249Z,40.02
2019-05-13T23:59:31.384Z,39.94
